Bourke, Australia
Current Conditions -  °F | °C
As of 5:00 PM on Tuesday 27 Jan 2015 (Local Time) from YSDU Reporting Station
Clear Clear  
Wind Chill: 70°   Ceiling: Unl
Heat Index: 70°   Visibility: 6mi
Dew Point: 66°   Wind: 13mph
Humidity: 88%   Direction: 80°E
Pressure: 29.77"   Gusts: NA
Location:  30.09°S, 145.94°E
Report Text: YSDU 270600Z AUTO 08011KT 9999 // NCD 21/19 Q1008
Loading
Personal Weather Stations






























Interactive Weather Map New forecast layout! Learn more

10-Day Weather Forecast

Advertisements
Track Severe Weather on mobile